Terminal Aerodrome Forecast
Issued by NWS Charleston, WV

Current Version | Previous Version | Graphics & Text | Print | Product List | Glossary On
Versions: 1 2 3 4 5 6 7 8 9 10 11 12 13 14 15 16 17 18 19 20 21 22 23 24 25
000
FTUS41 KRLX 012300
TAFBKW
TAF
KBKW 012324Z 0200/0224 31003KT P6SM SCT200
     FM020300 12002KT P6SM SCT200
     FM021500 28003KT P6SM FEW045
     FM021800 30004KT P6SM SCT200=

USA.gov is the U.S. government's official web portal to all federal, state and local government web resources and services.